Time;durP1;ratioP1;P1;durP2;ratioP2;P2;SDS_P1;SDS_P2;PMS_P1;PMS_P2;Temp;Humidity;BMP_temperature;BMP_pressure;BME280_temperature;BME280_humidity;BME280_pressure;Samples;Min_cycle;Max_cycle;Signal;HPM_P1;HPM_P2
2023/09/16 00:02:32;;;;;;;5.03;2.10;;;;;;;22.17;47.41;100773.31;5459909;32;34248;-70
2023/09/16 00:05:38;;;;;;;5.78;2.33;;;;;;;22.41;46.97;100778.47;5456112;32;34917;-71
2023/09/16 00:08:43;;;;;;;6.70;2.22;;;;;;;23.02;45.04;100777.88;5461261;32;33999;-70
2023/09/16 00:11:45;;;;;;;4.43;2.25;;;;;;;23.07;44.82;100780.16;5445006;32;35325;-69
2023/09/16 00:14:48;;;;;;;3.85;1.87;;;;;;;22.68;45.48;100782.53;5454425;32;35200;-70
2023/09/16 00:17:50;;;;;;;6.30;2.30;;;;;;;22.12;46.95;100777.31;5463948;32;33947;-71
2023/09/16 00:20:53;;;;;;;7.78;2.22;;;;;;;22.11;47.19;100778.31;5456144;32;35278;-70
2023/09/16 00:23:55;;;;;;;4.18;1.87;;;;;;;22.23;47.20;100773.78;5456045;32;34094;-70
2023/09/16 00:26:57;;;;;;;4.80;2.08;;;;;;;21.75;48.09;100777.56;5454594;32;34528;-69
2023/09/16 00:30:00;;;;;;;7.80;2.28;;;;;;;22.34;46.52;100777.25;5462754;32;35213;-70
2023/09/16 00:33:03;;;;;;;4.80;2.12;;;;;;;22.39;46.43;100776.88;5452874;32;35393;-71
2023/09/16 00:36:05;;;;;;;5.47;2.00;;;;;;;22.56;45.79;100780.88;5447115;32;33990;-71
2023/09/16 00:39:08;;;;;;;;;;;;;;;22.34;46.63;100781.78;5457717;32;34897;-70
2023/09/16 00:42:10;;;;;;;6.63;2.13;;;;;;;23.45;43.81;100775.03;5455116;32;34264;-70
2023/09/16 00:45:14;;;;;;;4.72;2.30;;;;;;;23.38;43.91;100779.25;5463820;32;33956;-69
2023/09/16 00:48:19;;;;;;;4.55;2.28;;;;;;;22.65;45.65;100775.56;5453330;32;34052;-71
2023/09/16 00:51:22;;;;;;;4.80;2.50;;;;;;;22.38;46.70;100789.44;5454540;32;34974;-69
2023/09/16 00:54:24;;;;;;;;;;;;;;;22.11;47.96;100784.50;5458747;32;34060;-70
2023/09/16 00:57:27;;;;;;;4.70;2.10;;;;;;;22.65;46.34;100788.97;5459562;32;34342;-70
2023/09/16 01:00:30;;;;;;;4.62;2.10;;;;;;;21.86;48.53;100784.75;5463993;32;34211;-70
2023/09/16 01:03:35;;;;;;;6.35;2.50;;;;;;;21.86;48.71;100782.94;5449810;32;35664;-71
2023/09/16 01:06:38;;;;;;;9.63;2.60;;;;;;;21.59;49.58;100780.63;5459631;32;34226;-72
2023/09/16 01:09:41;;;;;;;5.20;2.10;;;;;;;21.71;49.15;100785.97;5460657;32;34088;-71
2023/09/16 01:12:45;;;;;;;4.62;2.37;;;;;;;22.97;46.36;100780.94;5457106;32;34058;-69
2023/09/16 01:16:17;;;;;;;5.43;2.42;;;;;;;23.07;45.81;100774.81;5447148;32;35380;-70
2023/09/16 01:19:20;;;;;;;6.65;2.47;;;;;;;22.63;46.99;100779.37;5454899;32;34017;-72
2023/09/16 01:22:22;;;;;;;5.45;2.10;;;;;;;21.43;50.60;100776.59;5450229;32;34139;-71
2023/09/16 01:25:29;;;;;;;5.75;2.40;;;;;;;22.08;48.95;100765.97;5460950;32;35240;-71
2023/09/16 01:28:32;;;;;;;5.12;2.25;;;;;;;21.79;49.56;100770.16;5457041;32;33959;-70
2023/09/16 01:31:34;;;;;;;4.60;2.30;;;;;;;22.18;48.72;100771.47;5462512;32;35552;-69
2023/09/16 01:34:41;;;;;;;6.45;2.42;;;;;;;22.23;48.54;100773.78;5448409;32;34207;-69
2023/09/16 01:37:45;;;;;;;5.00;2.50;;;;;;;21.68;50.99;100773.69;5450935;32;35211;-69
2023/09/16 01:40:48;;;;;;;6.85;2.60;;;;;;;21.05;53.65;100781.22;5448523;32;34019;-70
2023/09/16 01:43:51;;;;;;;6.80;2.30;;;;;;;21.81;51.83;100779.75;5457477;32;34139;-70
2023/09/16 01:46:56;;;;;;;;;;;;;;;21.13;53.63;100791.34;5457703;32;34197;-70
2023/09/16 01:49:58;;;;;;;6.55;2.65;;;;;;;21.24;53.07;100791.34;5444276;32;35995;-69
2023/09/16 01:53:01;;;;;;;6.00;2.42;;;;;;;21.03;53.88;100799.22;5449680;32;34190;-70
2023/09/16 01:56:04;;;;;;;7.75;2.90;;;;;;;21.37;52.40;100797.47;5445481;32;32402;-71
2023/09/16 01:59:06;;;;;;;6.05;2.92;;;;;;;21.28;52.57;100790.19;5452379;32;34453;-69
2023/09/16 02:02:09;;;;;;;6.28;2.95;;;;;;;21.19;52.93;100796.22;5446058;32;34150;-69
2023/09/16 02:05:15;;;;;;;4.22;2.30;;;;;;;21.40;52.73;100791.06;5460846;32;34188;-69
2023/09/16 02:08:18;;;;;;;6.22;2.33;;;;;;;21.46;52.71;100790.59;5447892;32;35190;-70
2023/09/16 02:11:20;;;;;;;4.10;2.17;;;;;;;21.01;54.35;100793.13;5454927;32;33965;-69
2023/09/16 02:14:23;;;;;;;7.68;2.60;;;;;;;20.92;54.47;100790.28;5451894;32;34850;-70
2023/09/16 02:17:25;;;;;;;5.20;2.65;;;;;;;21.01;53.75;100798.47;5445737;32;155130;-69
2023/09/16 02:20:27;;;;;;;4.95;2.37;;;;;;;20.94;52.82;100797.25;5457281;32;35944;-69
2023/09/16 02:23:30;;;;;;;4.05;2.20;;;;;;;21.36;51.84;100800.28;5449554;32;35393;-69
2023/09/16 02:26:32;;;;;;;;;;;;;;;20.49;53.45;100812.22;5460831;32;34199;-70
2023/09/16 02:29:35;;;;;;;6.60;2.33;;;;;;;20.97;51.70;100799.66;5446352;32;34311;-71
2023/09/16 02:32:37;;;;;;;3.40;1.90;;;;;;;20.74;52.45;100798.75;5448326;32;34130;-72
2023/09/16 02:35:40;;;;;;;4.87;2.10;;;;;;;21.09;51.25;100796.06;5450057;32;34204;-70
2023/09/16 02:38:42;;;;;;;4.12;2.00;;;;;;;21.47;50.28;100786.94;5446153;32;34087;-69
2023/09/16 02:41:44;;;;;;;4.47;2.20;;;;;;;20.53;53.03;100792.31;5459202;32;34202;-71
2023/09/16 02:44:47;;;;;;;6.00;2.15;;;;;;;20.61;53.40;100791.75;5456570;32;35028;-69
2023/09/16 02:47:49;;;;;;;3.75;2.37;;;;;;;21.20;52.02;100795.25;5457145;32;34269;-70
2023/09/16 02:50:52;;;;;;;5.10;2.40;;;;;;;20.59;54.57;100789.19;5452684;32;35114;-71
2023/09/16 02:53:55;;;;;;;5.78;2.55;;;;;;;20.82;54.35;100785.66;5457012;32;34117;-69
2023/09/16 02:56:57;;;;;;;;;;;;;;;20.65;54.48;100787.91;5462846;32;34840;-70
2023/09/16 02:59:59;;;;;;;4.32;2.15;;;;;;;20.58;55.33;100789.31;5460705;32;34031;-71
2023/09/16 03:03:02;;;;;;;5.62;2.40;;;;;;;20.23;56.89;100798.09;5460176;32;35349;-71
2023/09/16 03:06:05;;;;;;;3.70;2.10;;;;;;;20.72;55.45;100783.78;5452541;32;35204;-70
2023/09/16 03:09:07;;;;;;;4.80;2.30;;;;;;;20.40;56.65;100799.50;5456412;32;34001;-69
2023/09/16 03:12:09;;;;;;;4.95;2.28;;;;;;;20.15;58.05;100795.09;5458712;32;34195;-69
2023/09/16 03:15:12;;;;;;;3.80;2.30;;;;;;;20.31;56.84;100798.38;5457580;32;34517;-71
2023/09/16 03:18:14;;;;;;;3.75;2.37;;;;;;;20.27;57.13;100803.06;5452377;32;34233;-70
2023/09/16 03:21:18;;;;;;;5.97;2.62;;;;;;;20.32;56.58;100802.75;5458546;32;33948;-71
2023/09/16 03:24:20;;;;;;;3.95;2.30;;;;;;;20.50;55.69;100805.91;5454976;32;35249;-70
2023/09/16 03:27:23;;;;;;;4.18;2.25;;;;;;;20.55;55.35;100801.94;5447598;32;35211;-70
2023/09/16 03:30:25;;;;;;;5.70;2.30;;;;;;;20.28;55.94;100804.78;5455381;32;35438;-70
2023/09/16 03:33:28;;;;;;;4.32;2.20;;;;;;;21.15;53.34;100796.56;5452674;32;34167;-69
2023/09/16 03:36:30;;;;;;;4.72;2.35;;;;;;;20.83;54.02;100807.88;5453788;32;34571;-70
2023/09/16 03:39:33;;;;;;;5.47;2.22;;;;;;;20.15;56.23;100805.78;5458889;32;35649;-70
2023/09/16 03:42:35;;;;;;;4.15;2.40;;;;;;;20.33;56.01;100814.28;5455311;32;35214;-71
2023/09/16 03:45:38;;;;;;;4.25;2.20;;;;;;;20.32;55.75;100805.41;5456328;32;34028;-70
2023/09/16 03:48:40;;;;;;;6.50;2.45;;;;;;;20.66;54.64;100802.94;5451522;32;34725;-71
2023/09/16 03:51:43;;;;;;;4.70;2.12;;;;;;;20.27;55.72;100804.88;5452996;32;35323;-70
2023/09/16 03:54:45;;;;;;;4.97;2.12;;;;;;;19.91;56.64;100817.28;5459170;32;35295;-69
2023/09/16 03:57:48;;;;;;;5.95;2.55;;;;;;;20.46;55.17;100804.44;5451260;32;35313;-71
2023/09/16 04:00:50;;;;;;;5.85;2.37;;;;;;;20.60;54.55;100801.56;5451547;32;34672;-71
2023/09/16 04:03:54;;;;;;;3.97;1.98;;;;;;;20.33;55.38;100798.25;5447277;32;34213;-69
2023/09/16 04:06:57;;;;;;;5.75;2.10;;;;;;;20.62;54.34;100797.00;5451770;32;35398;-69
2023/09/16 04:10:00;;;;;;;3.78;2.10;;;;;;;19.74;57.21;100796.28;5461339;32;34263;-70
2023/09/16 04:13:02;;;;;;;4.07;2.00;;;;;;;19.86;56.63;100805.22;5455491;32;34168;-70
2023/09/16 04:16:05;;;;;;;5.68;2.70;;;;;;;19.46;57.82;100803.50;5463308;32;35387;-71
2023/09/16 04:19:08;;;;;;;6.97;2.97;;;;;;;19.58;57.92;100811.62;5458469;32;35643;-71
2023/09/16 04:22:10;;;;;;;6.18;2.58;;;;;;;19.87;56.95;100807.78;5444537;32;34112;-69
2023/09/16 04:25:12;;;;;;;8.30;2.70;;;;;;;19.59;57.69;100808.03;5459777;32;34095;-70
2023/09/16 04:28:15;;;;;;;6.80;2.80;;;;;;;19.35;58.84;100805.22;5453802;32;35101;-69
2023/09/16 04:31:18;;;;;;;6.53;2.45;;;;;;;19.42;58.47;100803.81;5449850;32;34222;-69
2023/09/16 04:34:21;;;;;;;6.03;2.40;;;;;;;19.49;58.68;100810.44;5459282;32;35433;-70
2023/09/16 04:37:23;;;;;;;4.85;2.28;;;;;;;19.52;58.27;100814.72;5458013;32;34172;-71
2023/09/16 04:40:26;;;;;;;5.57;2.42;;;;;;;19.77;57.45;100811.19;5455020;32;34051;-70
2023/09/16 04:43:28;;;;;;;5.62;2.08;;;;;;;19.39;58.87;100812.91;5455738;32;34120;-70
2023/09/16 04:46:31;;;;;;;4.75;2.37;;;;;;;19.62;58.44;100813.97;5452559;32;34233;-70
2023/09/16 04:49:35;;;;;;;6.97;2.47;;;;;;;19.17;59.96;100812.66;5448480;32;34108;-71
2023/09/16 04:52:38;;;;;;;5.93;2.83;;;;;;;19.45;59.15;100807.16;5453367;32;35255;-70
2023/09/16 04:55:41;;;;;;;5.47;3.70;;;;;;;19.76;58.43;100813.00;5459971;32;33955;-71
2023/09/16 04:58:43;;;;;;;7.30;2.65;;;;;;;19.98;57.66;100810.53;5453099;32;35418;-69
2023/09/16 05:01:48;;;;;;;6.50;2.85;;;;;;;20.17;57.06;100820.72;5449901;32;34348;-70
2023/09/16 05:04:52;;;;;;;8.18;2.60;;;;;;;19.77;57.84;100822.69;5451118;32;34136;-70
2023/09/16 05:07:55;;;;;;;5.70;2.55;;;;;;;19.98;57.20;100825.69;5454172;32;34992;-71
2023/09/16 05:10:59;;;;;;;;;;;;;;;19.95;57.50;100829.41;5457625;32;34192;-70
2023/09/16 05:14:02;;;;;;;6.70;2.95;;;;;;;19.69;58.42;100833.06;5451681;32;36362;-70
2023/09/16 05:17:04;;;;;;;;;;;;;;;19.64;58.31;100832.53;5448929;32;35358;-70
2023/09/16 05:20:10;;;;;;;4.55;2.40;;;;;;;20.34;56.09;100832.84;5452731;32;34272;-70
2023/09/16 05:23:13;;;;;;;6.97;2.90;;;;;;;20.21;56.31;100832.88;5450078;32;33487;-71
2023/09/16 05:26:16;;;;;;;6.22;2.70;;;;;;;19.98;57.48;100833.69;5456790;32;34146;-69
2023/09/16 05:29:18;;;;;;;4.35;2.20;;;;;;;19.96;57.21;100833.78;5446922;32;33992;-71
2023/09/16 05:32:21;;;;;;;7.00;2.33;;;;;;;20.30;56.20;100834.03;5456899;32;34614;-69
2023/09/16 05:35:24;;;;;;;5.15;3.00;;;;;;;19.63;58.30;100838.81;5460728;32;34254;-70
2023/09/16 05:38:26;;;;;;;5.25;2.37;;;;;;;20.34;56.37;100842.66;5451922;32;34099;-70
2023/09/16 05:41:29;;;;;;;4.70;2.30;;;;;;;20.34;56.60;100848.84;5464620;32;34163;-69
2023/09/16 05:44:31;;;;;;;5.68;2.20;;;;;;;20.62;55.58;100844.22;5458555;32;33869;-71
2023/09/16 05:47:34;;;;;;;5.90;2.30;;;;;;;20.07;57.24;100840.16;5457337;32;33781;-71
2023/09/16 05:50:36;;;;;;;6.25;2.40;;;;;;;21.04;54.11;100837.47;5456101;32;35598;-71
2023/09/16 05:53:39;;;;;;;4.53;2.15;;;;;;;21.12;53.91;100836.87;5450593;32;34207;-69
2023/09/16 05:56:42;;;;;;;5.55;2.55;;;;;;;21.31;52.87;100827.37;5459639;32;34149;-70
2023/09/16 05:59:44;;;;;;;5.03;2.30;;;;;;;21.79;51.75;100831.69;5458910;32;35333;-69
2023/09/16 06:02:47;;;;;;;6.95;2.17;;;;;;;22.09;50.45;100837.34;5451938;32;33830;-72
2023/09/16 06:05:56;;;;;;;5.57;2.45;;;;;;;22.57;48.85;100825.41;5454604;32;34262;-69
2023/09/16 06:08:58;;;;;;;5.35;2.42;;;;;;;22.31;48.82;100831.09;5456545;32;34226;-69
2023/09/16 06:12:01;;;;;;;8.68;2.30;;;;;;;22.28;49.17;100835.81;5451050;32;35761;-70
2023/09/16 06:15:03;;;;;;;5.90;2.33;;;;;;;21.65;50.67;100831.94;5450679;32;35126;-71
2023/09/16 06:18:06;;;;;;;6.37;2.55;;;;;;;21.47;50.54;100835.06;5451351;32;34050;-72
2023/09/16 06:21:08;;;;;;;;;;;;;;;21.46;51.18;100837.88;5449385;32;34209;-70
2023/09/16 06:24:11;;;;;;;7.93;2.57;;;;;;;21.88;50.33;100834.47;5460452;32;35674;-72
2023/09/16 06:27:14;;;;;;;3.95;2.00;;;;;;;21.52;51.14;100827.56;5450466;32;35198;-71
2023/09/16 06:30:17;;;;;;;5.22;2.12;;;;;;;21.71;50.34;100828.78;5458492;32;34186;-71
2023/09/16 06:33:19;;;;;;;7.82;2.53;;;;;;;21.71;50.21;100823.44;5447272;32;33913;-71
2023/09/16 06:36:22;;;;;;;4.50;2.25;;;;;;;21.63;50.65;100821.34;5453087;32;35314;-70
2023/09/16 06:39:25;;;;;;;4.32;2.53;;;;;;;21.28;51.79;100829.41;5460257;32;34306;-72
2023/09/16 06:42:27;;;;;;;8.57;2.85;;;;;;;20.96;52.47;100829.19;5453630;32;34513;-71
2023/09/16 06:45:30;;;;;;;8.40;2.65;;;;;;;21.17;52.25;100826.69;5457477;32;34233;-70
2023/09/16 06:48:32;;;;;;;7.57;2.45;;;;;;;20.99;52.58;100827.13;5446039;32;33974;-71
2023/09/16 06:51:35;;;;;;;5.30;2.62;;;;;;;20.41;54.34;100836.75;5446698;32;34019;-70
2023/09/16 06:54:37;;;;;;;5.87;2.53;;;;;;;21.86;50.34;100833.75;5450064;32;34178;-70
2023/09/16 06:57:39;;;;;;;9.00;2.58;;;;;;;20.83;53.44;100847.97;5454184;32;35331;-70
2023/09/16 07:01:07;;;;;;;4.93;2.25;;;;;;;21.47;51.03;100837.75;5460977;32;34857;-70
2023/09/16 07:04:10;;;;;;;6.15;2.85;;;;;;;21.12;52.19;100843.06;5447573;32;34285;-71
2023/09/16 07:07:12;;;;;;;4.62;2.30;;;;;;;21.32;51.46;100838.94;5450857;32;34153;-70
2023/09/16 07:10:15;;;;;;;6.03;3.10;;;;;;;21.50;51.07;100842.84;5455704;32;34100;-70
2023/09/16 07:13:18;;;;;;;;;;;;;;;22.04;50.07;100841.31;5451539;32;34020;-72
2023/09/16 07:16:20;;;;;;;6.27;2.80;;;;;;;21.80;50.37;100844.09;5448129;32;35256;-71
2023/09/16 07:19:23;;;;;;;9.63;3.08;;;;;;;21.45;51.22;100853.06;5453827;32;34151;-70
2023/09/16 07:22:25;;;;;;;8.70;3.25;;;;;;;21.86;49.96;100838.25;5454056;32;34112;-71
2023/09/16 07:25:28;;;;;;;10.00;2.92;;;;;;;22.19;49.40;100842.78;5456191;32;35384;-71
2023/09/16 07:29:00;;;;;;;19.17;9.18;;;;;;;21.92;50.44;100844.97;5458808;32;34541;-71
2023/09/16 07:32:22;;;;;;;9.80;2.65;;;;;;;22.83;47.94;100847.37;5453884;32;34100;-70
2023/09/16 07:35:43;;;;;;;6.32;2.42;;;;;;;22.83;48.01;100842.88;5440970;32;34221;-69
2023/09/16 07:38:49;;;;;;;9.23;2.97;;;;;;;22.29;48.76;100838.41;5459186;32;33974;-71
2023/09/16 07:41:52;;;;;;;6.50;2.70;;;;;;;22.01;50.09;100847.75;5456836;32;34180;-72
2023/09/16 07:44:54;;;;;;;;;;;;;;;22.38;48.86;100834.97;5460698;32;34894;-71
2023/09/16 07:47:57;;;;;;;9.05;3.78;;;;;;;23.23;46.86;100835.03;5454704;32;34498;-71
2023/09/16 07:50:59;;;;;;;;;;;;;;;23.59;45.96;100835.53;5447046;32;35552;-70
2023/09/16 07:54:01;;;;;;;10.43;4.22;;;;;;;22.62;47.99;100840.13;5463492;32;36081;-70
2023/09/16 07:57:04;;;;;;;;;;;;;;;23.80;45.53;100835.53;5454466;32;35858;-71
2023/09/16 08:00:07;;;;;;;6.30;2.80;;;;;;;22.94;47.43;100842.00;5460223;32;34224;-71
2023/09/16 08:03:10;;;;;;;8.65;2.53;;;;;;;22.58;48.61;100830.63;5445490;32;35369;-70
2023/09/16 08:06:12;;;;;;;6.37;2.45;;;;;;;24.35;45.07;100821.78;5455752;32;35452;-71
2023/09/16 08:09:16;;;;;;;6.70;3.10;;;;;;;24.28;44.35;100827.66;5456586;32;35299;-70
2023/09/16 08:12:20;;;;;;;5.72;2.50;;;;;;;24.28;44.58;100822.28;5447454;32;34807;-70
2023/09/16 08:15:23;;;;;;;8.15;3.08;;;;;;;24.48;44.05;100823.19;5463604;32;35410;-71
2023/09/16 08:18:26;;;;;;;5.43;3.03;;;;;;;24.31;44.96;100827.37;5451083;32;34288;-70
2023/09/16 08:21:28;;;;;;;5.62;2.87;;;;;;;24.80;43.93;100817.56;5456790;32;35340;-71
2023/09/16 08:24:31;;;;;;;7.85;3.00;;;;;;;24.77;44.41;100827.75;5456268;32;33998;-70
2023/09/16 08:27:33;;;;;;;5.00;2.70;;;;;;;24.36;45.23;100823.47;5457443;32;34194;-71
2023/09/16 08:30:36;;;;;;;5.22;2.83;;;;;;;24.37;45.21;100822.47;5462546;32;35171;-70
2023/09/16 08:33:38;;;;;;;6.25;2.62;;;;;;;24.09;45.66;100827.59;5457375;32;33989;-71
2023/09/16 08:36:41;;;;;;;5.62;2.45;;;;;;;24.73;43.61;100831.69;5456254;32;33978;-71
2023/09/16 08:39:43;;;;;;;5.43;2.83;;;;;;;25.27;42.48;100825.78;5455177;32;35132;-71
2023/09/16 08:42:56;;;;;;;5.10;2.58;;;;;;;24.67;43.33;100830.44;5455185;32;34159;-72
2023/09/16 08:46:03;;;;;;;;;;;;;;;24.31;44.43;100827.37;5446114;32;34008;-71
2023/09/16 08:49:08;;;;;;;8.13;2.83;;;;;;;24.10;44.96;100834.66;5454931;32;35849;-71
2023/09/16 08:52:16;;;;;;;6.43;2.80;;;;;;;25.15;42.95;100826.06;5453152;32;34915;-70
2023/09/16 08:55:19;;;;;;;5.82;2.75;;;;;;;24.61;43.74;100833.69;5459253;32;34381;-72
2023/09/16 08:58:23;;;;;;;8.73;2.87;;;;;;;24.69;43.93;100836.50;5461216;32;35101;-71
2023/09/16 09:01:26;;;;;;;5.53;2.53;;;;;;;25.59;41.90;100821.88;5456459;32;34198;-71
2023/09/16 09:04:30;;;;;;;5.72;2.70;;;;;;;25.51;42.39;100827.16;5450409;32;34925;-70
2023/09/16 09:07:36;;;;;;;5.78;2.60;;;;;;;24.92;43.61;100825.47;5453546;32;35613;-71
2023/09/16 09:10:42;;;;;;;10.32;3.03;;;;;;;24.17;45.54;100834.97;5459117;32;36021;-71
2023/09/16 09:13:48;;;;;;;5.62;2.97;;;;;;;25.25;43.46;100827.75;5453217;32;35500;-71
2023/09/16 09:16:51;;;;;;;6.15;2.70;;;;;;;25.60;42.63;100821.72;5455205;32;35288;-70
2023/09/16 09:19:54;;;;;;;5.60;2.70;;;;;;;25.14;43.91;100830.59;5459343;32;34083;-71
2023/09/16 09:22:57;;;;;;;5.87;2.95;;;;;;;25.69;42.53;100819.97;5454587;32;34200;-70
2023/09/16 09:25:59;;;;;;;7.03;3.10;;;;;;;25.49;43.41;100824.56;5459213;32;34140;-69
2023/09/16 09:29:02;;;;;;;6.15;3.25;;;;;;;25.26;43.96;100818.69;5455253;32;35619;-70
2023/09/16 09:32:05;;;;;;;7.18;3.15;;;;;;;25.02;44.63;100815.56;5446152;32;34074;-69
2023/09/16 09:35:08;;;;;;;6.90;3.20;;;;;;;24.50;45.96;100817.69;5461567;32;34445;-70
2023/09/16 09:38:11;;;;;;;8.77;2.95;;;;;;;24.51;46.00;100814.84;5453584;32;33625;-71
2023/09/16 09:41:14;;;;;;;6.68;3.10;;;;;;;24.68;45.75;100815.16;5458961;32;34092;-72
2023/09/16 09:44:17;;;;;;;6.93;3.10;;;;;;;24.94;45.56;100818.97;5455133;32;35348;-72
2023/09/16 09:47:19;;;;;;;6.35;3.00;;;;;;;25.81;43.37;100813.44;5456741;32;34027;-71
2023/09/16 09:50:22;;;;;;;7.18;3.20;;;;;;;26.48;41.86;100810.59;5454617;32;34154;-72
2023/09/16 09:53:26;;;;;;;10.07;4.20;;;;;;;25.95;43.18;100811.25;5453501;32;34149;-72
2023/09/16 09:56:28;;;;;;;6.37;3.30;;;;;;;26.52;41.50;100807.41;5460652;32;35239;-70
2023/09/16 09:59:31;;;;;;;7.30;3.40;;;;;;;26.91;40.95;100804.41;5455292;32;35658;-69
2023/09/16 10:02:33;;;;;;;6.80;3.28;;;;;;;28.33;38.29;100794.97;5450629;32;35649;-70
2023/09/16 10:05:36;;;;;;;6.62;3.15;;;;;;;27.21;40.38;100801.31;5455561;32;34114;-70
2023/09/16 10:08:39;;;;;;;5.60;3.33;;;;;;;27.41;40.04;100793.84;5453537;32;35899;-70
2023/09/16 10:11:42;;;;;;;7.97;3.65;;;;;;;28.91;36.87;100802.16;5458104;32;34093;-70
2023/09/16 10:14:45;;;;;;;4.90;2.92;;;;;;;28.47;37.45;100785.41;5450427;32;34168;-72
2023/09/16 10:17:48;;;;;;;7.45;3.00;;;;;;;27.44;39.56;100782.75;5448505;32;34463;-70
2023/09/16 10:20:51;;;;;;;6.53;2.90;;;;;;;25.76;43.28;100796.91;5453190;32;35596;-70
2023/09/16 10:23:54;;;;;;;8.10;3.17;;;;;;;26.13;42.71;100787.91;5456065;32;34063;-72
2023/09/16 10:27:02;;;;;;;5.40;3.10;;;;;;;26.64;41.64;100786.47;5448506;32;34846;-72
2023/09/16 10:30:06;;;;;;;4.68;2.95;;;;;;;26.22;42.43;100778.94;5457701;32;35201;-72
2023/09/16 10:33:10;;;;;;;7.57;3.30;;;;;;;25.95;43.33;100776.25;5464104;32;34489;-72
2023/09/16 10:36:14;;;;;;;7.20;3.08;;;;;;;26.88;41.52;100775.06;5455659;32;35641;-69
2023/09/16 10:39:17;;;;;;;9.88;2.97;;;;;;;25.87;43.44;100768.94;5461023;32;34200;-72
2023/09/16 10:42:20;;;;;;;5.35;2.90;;;;;;;25.45;44.76;100780.13;5452905;32;33937;-71
2023/09/16 10:45:23;;;;;;;7.47;3.33;;;;;;;26.31;42.95;100769.94;5461448;32;35237;-70
2023/09/16 10:48:25;;;;;;;7.30;3.47;;;;;;;26.46;42.66;100764.91;5443674;32;35692;-71
2023/09/16 10:51:32;;;;;;;6.72;3.12;;;;;;;27.33;41.07;100768.66;5444389;32;34064;-70
2023/09/16 10:54:43;;;;;;;7.05;3.05;;;;;;;26.80;41.90;100766.91;5459184;32;35561;-69
2023/09/16 10:58:09;;;;;;;5.63;3.20;;;;;;;26.88;41.46;100766.97;5449124;32;34053;-71
2023/09/16 11:01:18;;;;;;;7.53;3.17;;;;;;;26.48;42.85;100776.41;5457412;32;34222;-71
2023/09/16 11:04:21;;;;;;;7.93;3.37;;;;;;;27.62;40.64;100763.75;5450125;32;35278;-70
2023/09/16 11:07:24;;;;;;;6.72;2.83;;;;;;;26.65;42.28;100767.44;5455783;32;34030;-71
2023/09/16 11:10:27;;;;;;;5.15;2.90;;;;;;;28.13;39.20;100761.12;5463382;32;34702;-72
2023/09/16 11:13:30;;;;;;;5.60;3.05;;;;;;;27.90;39.83;100763.59;5451678;32;34127;-71
2023/09/16 11:16:48;;;;;;;5.22;2.85;;;;;;;27.26;40.87;100757.66;5453069;32;34189;-70
2023/09/16 11:19:51;;;;;;;6.95;3.55;;;;;;;28.49;38.29;100751.78;5456708;32;37050;-69
2023/09/16 11:22:54;;;;;;;4.62;2.72;;;;;;;27.17;40.97;100751.34;5444887;32;35335;-72
2023/09/16 11:25:57;;;;;;;5.35;3.28;;;;;;;28.03;39.35;100739.66;5457675;32;34210;-70
2023/09/16 11:29:00;;;;;;;6.78;2.83;;;;;;;28.82;37.49;100731.00;5452434;32;35857;-72
2023/09/16 11:32:02;;;;;;;5.10;3.17;;;;;;;28.09;39.06;100732.75;5460502;32;33947;-69
2023/09/16 11:35:05;;;;;;;4.53;2.62;;;;;;;29.05;37.17;100730.34;5459161;32;34445;-72
2023/09/16 11:38:07;;;;;;;4.65;2.97;;;;;;;28.58;38.04;100725.56;5452156;32;34122;-69
2023/09/16 11:41:10;;;;;;;5.75;3.20;;;;;;;28.35;38.70;100730.81;5459573;32;32783;-71
2023/09/16 11:44:13;;;;;;;6.22;3.15;;;;;;;27.16;41.57;100720.00;5449045;32;34187;-72
2023/09/16 11:47:16;;;;;;;6.65;3.00;;;;;;;27.65;40.29;100731.06;5451002;32;34170;-71
2023/09/16 11:50:20;;;;;;;5.82;2.90;;;;;;;27.67;40.21;100718.22;5457104;32;34065;-71
2023/09/16 11:53:23;;;;;;;6.72;2.90;;;;;;;28.49;38.27;100704.97;5451036;32;34116;-70
2023/09/16 11:56:28;;;;;;;7.07;2.90;;;;;;;28.18;39.13;100723.66;5451968;32;35202;-71
2023/09/16 11:59:30;;;;;;;6.65;3.20;;;;;;;27.68;40.05;100730.75;5451435;32;34040;-71
2023/09/16 12:02:33;;;;;;;5.70;2.97;;;;;;;27.41;40.58;100725.53;5460096;32;35451;-69
2023/09/16 12:05:36;;;;;;;7.78;3.50;;;;;;;26.00;43.98;100720.94;5454796;32;34999;-70
2023/09/16 12:08:40;;;;;;;6.25;3.03;;;;;;;25.84;44.33;100724.31;5453341;32;32661;-71
2023/09/16 12:11:43;;;;;;;6.82;3.00;;;;;;;26.67;42.56;100718.78;5453832;32;34145;-69
2023/09/16 12:14:47;;;;;;;6.72;3.17;;;;;;;27.03;41.86;100702.50;5460805;32;35444;-70
2023/09/16 12:17:49;;;;;;;6.53;3.12;;;;;;;27.38;41.16;100713.22;5456412;32;35303;-71
2023/09/16 12:20:55;;;;;;;5.93;3.10;;;;;;;27.22;41.36;100707.72;5457084;32;35287;-73
2023/09/16 12:23:59;;;;;;;8.00;3.00;;;;;;;27.02;41.92;100698.13;5462639;32;35390;-69
2023/09/16 12:27:01;;;;;;;7.45;3.10;;;;;;;26.82;42.30;100706.41;5454612;32;35794;-71
2023/09/16 12:30:04;;;;;;;7.28;2.92;;;;;;;26.11;44.04;100715.34;5464453;32;34096;-71
2023/09/16 12:33:07;;;;;;;7.87;3.10;;;;;;;26.82;42.53;100706.41;5451625;32;35630;-70
2023/09/16 12:36:28;;;;;;;5.37;2.95;;;;;;;26.59;43.26;100705.22;5456094;32;35598;-71
2023/09/16 12:39:34;;;;;;;6.82;2.97;;;;;;;26.79;42.78;100711.25;5453845;32;34351;-70
2023/09/16 12:42:37;;;;;;;4.28;2.97;;;;;;;26.78;42.75;100704.19;5458277;32;34196;-70
2023/09/16 12:45:40;;;;;;;6.28;3.12;;;;;;;26.51;43.46;100702.47;5461820;32;35151;-71
2023/09/16 12:48:45;;;;;;;5.53;3.10;;;;;;;26.19;44.32;100701.13;5452064;32;35113;-71
2023/09/16 12:51:48;;;;;;;5.72;2.90;;;;;;;26.78;42.94;100699.62;5456662;32;34298;-71
2023/09/16 12:54:50;;;;;;;7.03;3.37;;;;;;;26.88;42.68;100694.16;5448376;32;34090;-70
2023/09/16 12:57:53;;;;;;;4.43;2.90;;;;;;;26.67;43.15;100691.81;5458089;32;34880;-70
2023/09/16 13:00:56;;;;;;;5.47;2.95;;;;;;;26.06;44.72;100706.03;5461229;32;35425;-70
2023/09/16 13:03:59;;;;;;;6.07;2.87;;;;;;;26.11;44.64;100707.28;5449441;32;35327;-69
2023/09/16 13:07:01;;;;;;;7.95;3.20;;;;;;;26.27;44.27;100706.56;5452829;32;33914;-71
2023/09/16 13:10:04;;;;;;;5.82;3.00;;;;;;;26.11;44.55;100704.59;5457069;32;35857;-70
2023/09/16 13:13:08;;;;;;;7.00;3.17;;;;;;;26.20;44.66;100700.97;5460657;32;34112;-70
2023/09/16 13:16:10;;;;;;;5.35;2.95;;;;;;;25.97;45.18;100693.50;5457174;32;34460;-69
2023/09/16 13:19:20;;;;;;;6.03;3.20;;;;;;;26.01;45.37;100686.78;5449930;32;34159;-71
2023/09/16 13:22:23;;;;;;;7.95;3.35;;;;;;;25.79;46.08;100686.22;5457476;32;35913;-70
2023/09/16 13:25:32;;;;;;;6.25;3.67;;;;;;;26.29;45.04;100685.75;5448678;32;34209;-69
2023/09/16 13:28:34;;;;;;;5.82;3.00;;;;;;;25.92;45.73;100685.88;5453891;32;33914;-70
2023/09/16 13:31:37;;;;;;;7.22;3.78;;;;;;;26.10;45.45;100697.50;5453899;32;34509;-72
2023/09/16 13:34:47;;;;;;;6.47;3.00;;;;;;;24.97;48.49;100691.47;5453677;32;34203;-70
2023/09/16 13:37:49;;;;;;;6.07;3.30;;;;;;;25.64;46.91;100698.47;5456198;32;35334;-69
2023/09/16 13:41:02;;;;;;;5.68;3.22;;;;;;;25.54;47.09;100697.66;5454120;32;34264;-70
2023/09/16 13:44:19;;;;;;;9.15;3.47;;;;;;;25.51;47.28;100697.97;5453197;32;35692;-70
2023/09/16 13:47:21;;;;;;;6.30;3.50;;;;;;;26.28;45.45;100700.22;5449781;32;33847;-71
2023/09/16 13:50:24;;;;;;;7.18;3.65;;;;;;;26.27;45.18;100695.81;5447756;32;34146;-71
2023/09/16 13:53:26;;;;;;;5.95;3.20;;;;;;;25.74;46.65;100701.13;5451696;32;34166;-73
2023/09/16 13:56:29;;;;;;;6.93;3.30;;;;;;;26.18;45.60;100702.13;5457405;32;35256;-69
2023/09/16 13:59:31;;;;;;;6.97;3.40;;;;;;;26.19;45.52;100701.97;5461638;32;34077;-71
2023/09/16 14:02:34;;;;;;;8.60;3.83;;;;;;;26.11;45.81;100690.28;5455172;32;34484;-70
2023/09/16 14:05:37;;;;;;;8.68;3.45;;;;;;;26.42;44.78;100696.16;5453462;32;34218;-70
2023/09/16 14:08:39;;;;;;;7.03;3.12;;;;;;;26.30;44.94;100695.50;5449605;32;34206;-71
2023/09/16 14:11:42;;;;;;;6.05;3.28;;;;;;;25.54;46.87;100694.97;5456667;32;34025;-69
2023/09/16 14:14:44;;;;;;;6.37;3.37;;;;;;;26.26;44.98;100693.25;5452106;32;33893;-70
2023/09/16 14:17:47;;;;;;;7.03;3.60;;;;;;;26.09;45.36;100690.44;5448137;32;34590;-70
2023/09/16 14:20:50;;;;;;;5.57;2.80;;;;;;;26.37;44.59;100683.09;5455045;32;34059;-70